createdAt,value
2023-05-19T00:02:09.298Z,1.90
2023-05-19T00:04:37.099Z,2.22
2023-05-19T00:07:05.662Z,2.00
2023-05-19T00:09:32.865Z,2.17
2023-05-19T00:12:00.145Z,2.00
2023-05-19T00:14:29.069Z,2.55
2023-05-19T00:16:57.952Z,2.10
2023-05-19T00:19:25.582Z,2.22
2023-05-19T00:21:52.476Z,2.67
2023-05-19T00:24:19.357Z,1.90
2023-05-19T00:26:46.185Z,2.00
2023-05-19T00:29:13.249Z,1.92
2023-05-19T00:31:40.148Z,2.17
2023-05-19T00:34:09.247Z,2.40
2023-05-19T00:36:36.188Z,2.05
2023-05-19T00:39:03.443Z,2.25
2023-05-19T00:41:30.392Z,2.33
2023-05-19T00:43:57.665Z,2.15
2023-05-19T00:46:24.914Z,2.40
2023-05-19T00:48:51.942Z,2.30
2023-05-19T00:51:19.160Z,2.38
2023-05-19T00:53:49.213Z,1.90
2023-05-19T00:56:16.986Z,2.00
2023-05-19T00:58:44.763Z,2.38
2023-05-19T01:01:14.547Z,2.13
2023-05-19T01:03:43.521Z,2.45
2023-05-19T01:06:12.209Z,2.40
2023-05-19T01:08:39.530Z,2.13
2023-05-19T01:11:07.487Z,1.80
2023-05-19T01:13:36.275Z,2.17
2023-05-19T01:16:13.079Z,2.30
2023-05-19T01:19:17.121Z,2.00
2023-05-19T01:24:38.019Z,2.22
2023-05-19T01:27:23.407Z,2.10
2023-05-19T01:30:17.888Z,1.92
2023-05-19T01:32:47.981Z,2.20
2023-05-19T01:35:16.791Z,1.90
2023-05-19T01:37:45.381Z,2.45
2023-05-19T01:40:13.137Z,1.70
2023-05-19T01:42:40.872Z,1.90
2023-05-19T01:45:10.662Z,1.75
2023-05-19T01:47:42.467Z,2.25
2023-05-19T01:50:09.923Z,2.30
2023-05-19T01:52:36.903Z,2.10
2023-05-19T01:55:04.193Z,1.60
2023-05-19T01:57:54.238Z,2.03
2023-05-19T02:00:52.033Z,1.88
2023-05-19T02:03:29.544Z,2.13
2023-05-19T02:06:16.143Z,2.10
2023-05-19T02:08:57.115Z,2.10
2023-05-19T02:11:53.356Z,2.10
2023-05-19T02:14:30.351Z,1.92
2023-05-19T02:16:59.304Z,1.80
2023-05-19T02:19:29.384Z,1.95
2023-05-19T02:21:56.564Z,2.33
2023-05-19T02:24:23.915Z,1.90
2023-05-19T02:26:52.174Z,2.17
2023-05-19T02:29:19.947Z,2.45
2023-05-19T02:31:47.667Z,2.15
2023-05-19T02:34:14.894Z,1.98
2023-05-19T02:36:45.551Z,2.28
2023-05-19T02:39:12.471Z,2.20
2023-05-19T02:41:39.466Z,2.33
2023-05-19T02:44:06.484Z,2.38
2023-05-19T02:46:34.205Z,2.13
2023-05-19T02:49:01.075Z,2.63
2023-05-19T02:51:27.970Z,1.92
2023-05-19T02:53:54.884Z,2.20
2023-05-19T02:56:21.888Z,2.08
2023-05-19T02:58:48.779Z,2.00
2023-05-19T03:01:16.647Z,2.08
2023-05-19T03:03:43.764Z,1.98
2023-05-19T03:06:10.706Z,2.17
2023-05-19T03:08:38.832Z,1.88
2023-05-19T03:11:07.629Z,2.00
2023-05-19T03:13:34.936Z,2.05
2023-05-19T03:16:02.168Z,2.00
2023-05-19T03:18:29.330Z,1.83
2023-05-19T03:20:56.510Z,1.70
2023-05-19T03:23:23.671Z,2.20
2023-05-19T03:25:50.944Z,2.25
2023-05-19T03:28:18.336Z,2.33
2023-05-19T03:30:45.481Z,1.98
2023-05-19T03:33:17.355Z,1.88
2023-05-19T03:35:45.644Z,2.65
2023-05-19T03:38:13.505Z,2.28
2023-05-19T03:40:46.758Z,2.20
2023-05-19T03:43:13.685Z,2.13
2023-05-19T03:45:46.602Z,2.30
2023-05-19T03:48:32.426Z,2.13
2023-05-19T03:51:30.110Z,2.08
2023-05-19T03:54:04.570Z,2.33
2023-05-19T03:56:32.748Z,2.55
2023-05-19T03:59:00.230Z,2.47
2023-05-19T04:01:27.185Z,2.88
2023-05-19T04:03:53.991Z,1.90
2023-05-19T04:06:21.150Z,2.45
2023-05-19T04:08:48.011Z,2.10
2023-05-19T04:11:14.965Z,2.10
2023-05-19T04:13:41.852Z,2.17
2023-05-19T04:16:08.874Z,1.98
2023-05-19T04:18:35.920Z,2.25
2023-05-19T04:21:04.585Z,1.98
2023-05-19T04:23:32.576Z,2.15
2023-05-19T04:26:00.510Z,2.38
2023-05-19T04:28:27.633Z,2.28
2023-05-19T04:30:54.862Z,2.17
2023-05-19T04:33:21.885Z,2.33
2023-05-19T04:35:50.276Z,2.50
2023-05-19T04:38:18.998Z,2.55
2023-05-19T04:40:50.199Z,2.10
2023-05-19T04:43:18.099Z,2.10
2023-05-19T04:45:46.567Z,2.58
2023-05-19T04:48:14.052Z,2.47
2023-05-19T04:50:42.255Z,1.73
2023-05-19T04:53:10.040Z,2.70
2023-05-19T04:55:38.780Z,2.40
2023-05-19T04:58:07.085Z,2.13
2023-05-19T05:00:35.884Z,2.53
2023-05-19T05:03:06.987Z,2.17
2023-05-19T05:05:35.141Z,1.85
2023-05-19T05:08:02.008Z,2.25
2023-05-19T05:10:33.363Z,2.15
2023-05-19T05:13:00.881Z,2.70
2023-05-19T05:15:29.832Z,2.20
2023-05-19T05:17:59.401Z,2.15
2023-05-19T05:20:26.763Z,2.30
2023-05-19T05:22:54.141Z,2.03
2023-05-19T05:25:22.628Z,1.98
2023-05-19T05:27:49.969Z,2.10
2023-05-19T05:30:16.843Z,2.58
2023-05-19T05:32:43.836Z,2.58
2023-05-19T05:35:24.573Z,2.08
2023-05-19T05:37:51.673Z,2.30
2023-05-19T05:40:19.105Z,2.30
2023-05-19T05:42:46.302Z,2.40
2023-05-19T05:45:13.858Z,2.40
2023-05-19T05:47:42.013Z,2.38
2023-05-19T05:50:10.674Z,2.85
2023-05-19T05:52:38.710Z,2.60
2023-05-19T05:55:06.868Z,2.72
2023-05-19T05:57:36.507Z,2.58
2023-05-19T06:00:07.877Z,1.95
2023-05-19T06:02:48.973Z,2.20
2023-05-19T06:05:17.731Z,2.38
2023-05-19T06:07:46.718Z,2.60
2023-05-19T06:10:19.057Z,2.33
2023-05-19T06:12:46.736Z,2.33
2023-05-19T06:15:13.711Z,2.60
2023-05-19T06:18:06.820Z,2.63
2023-05-19T06:20:34.025Z,3.13
2023-05-19T06:23:03.003Z,2.60
2023-05-19T06:25:30.503Z,2.80
2023-05-19T06:27:58.220Z,2.70
2023-05-19T06:30:25.730Z,2.70
2023-05-19T06:33:07.092Z,2.60
2023-05-19T06:35:34.098Z,2.75
2023-05-19T06:38:01.249Z,2.67
2023-05-19T06:40:28.385Z,3.10
2023-05-19T06:42:55.515Z,3.05
2023-05-19T06:45:32.118Z,2.75
2023-05-19T06:48:01.848Z,2.38
2023-05-19T06:50:28.853Z,2.65
2023-05-19T06:52:57.264Z,2.40
2023-05-19T06:55:24.931Z,2.42
2023-05-19T06:57:51.854Z,2.92
2023-05-19T07:00:22.993Z,2.25
2023-05-19T07:02:52.567Z,2.42
2023-05-19T07:05:19.865Z,2.65
2023-05-19T07:07:51.329Z,2.70
2023-05-19T07:10:21.997Z,3.00
2023-05-19T07:12:50.606Z,3.10
2023-05-19T07:15:19.213Z,2.50
2023-05-19T07:17:46.153Z,2.25
2023-05-19T07:20:13.236Z,2.90
2023-05-19T07:22:40.232Z,2.92
2023-05-19T07:25:08.524Z,2.85
2023-05-19T07:27:35.869Z,3.05
2023-05-19T07:30:04.080Z,2.65
2023-05-19T07:32:30.991Z,2.60
2023-05-19T07:34:57.932Z,2.80
2023-05-19T07:37:24.886Z,2.85
2023-05-19T07:39:51.722Z,2.72
2023-05-19T07:42:18.589Z,2.70
2023-05-19T07:44:45.549Z,2.60
2023-05-19T07:47:12.392Z,2.35
2023-05-19T07:49:39.299Z,3.00
2023-05-19T07:52:06.745Z,2.55
2023-05-19T07:54:33.630Z,2.90
2023-05-19T07:57:01.003Z,2.30
2023-05-19T07:59:27.858Z,2.78
2023-05-19T08:01:54.710Z,2.33
2023-05-19T08:04:23.833Z,2.63
2023-05-19T08:06:52.900Z,2.95
2023-05-19T08:09:20.147Z,3.25
2023-05-19T08:11:47.140Z,2.63
2023-05-19T08:14:13.987Z,2.63
2023-05-19T08:16:42.306Z,2.97
2023-05-19T08:19:09.413Z,3.00
2023-05-19T08:21:36.680Z,2.45
2023-05-19T08:24:04.355Z,2.38
2023-05-19T08:26:31.331Z,2.80
2023-05-19T08:28:58.194Z,2.55
2023-05-19T08:31:25.128Z,2.53
2023-05-19T08:33:52.467Z,2.42
2023-05-19T08:36:19.526Z,2.33
2023-05-19T08:38:46.408Z,2.60
2023-05-19T08:41:13.245Z,2.30
2023-05-19T08:43:40.141Z,2.00
2023-05-19T08:46:08.229Z,2.25
2023-05-19T08:48:38.836Z,2.30
2023-05-19T08:51:24.946Z,2.22
2023-05-19T08:53:57.719Z,2.50
2023-05-19T08:56:25.259Z,2.60
2023-05-19T08:58:52.342Z,2.75
2023-05-19T09:01:20.414Z,2.50
2023-05-19T09:03:49.916Z,2.30
2023-05-19T09:06:17.171Z,2.17
2023-05-19T09:08:44.831Z,2.10
2023-05-19T09:11:12.014Z,2.17
2023-05-19T09:13:39.237Z,1.88
2023-05-19T09:16:06.669Z,2.38
2023-05-19T09:18:34.023Z,2.33
2023-05-19T09:21:02.635Z,2.40
2023-05-19T09:23:33.524Z,2.38
2023-05-19T09:26:08.390Z,2.28
2023-05-19T09:28:37.812Z,1.90
2023-05-19T09:31:09.682Z,1.75
2023-05-19T09:33:38.056Z,2.25
2023-05-19T09:36:08.764Z,2.10
2023-05-19T09:38:36.957Z,2.50
2023-05-19T09:41:05.411Z,2.20
2023-05-19T09:43:34.263Z,2.78
2023-05-19T09:46:04.824Z,2.30
2023-05-19T09:48:31.845Z,2.47
2023-05-19T09:51:01.185Z,3.13
2023-05-19T09:53:30.326Z,2.28
2023-05-19T09:55:58.266Z,2.45
2023-05-19T09:58:26.542Z,1.92
2023-05-19T10:00:57.380Z,2.15
2023-05-19T10:03:26.210Z,2.67
2023-05-19T10:05:53.948Z,1.88
2023-05-19T10:08:22.708Z,2.08
2023-05-19T10:10:49.792Z,1.98
2023-05-19T10:13:17.247Z,2.78
2023-05-19T10:15:58.259Z,2.35
2023-05-19T10:18:28.022Z,2.78
2023-05-19T10:20:55.944Z,2.63
2023-05-19T10:23:23.599Z,2.63
2023-05-19T10:25:54.810Z,2.33
2023-05-19T10:28:25.560Z,2.63
2023-05-19T10:30:58.819Z,2.45
2023-05-19T10:33:54.290Z,2.50
2023-05-19T10:36:33.126Z,2.17
2023-05-19T10:39:18.993Z,2.00
2023-05-19T10:42:05.046Z,1.90
2023-05-19T10:44:45.093Z,2.10
2023-05-19T10:47:12.446Z,1.77
2023-05-19T10:49:40.369Z,2.15
2023-05-19T10:52:28.798Z,2.45
2023-05-19T10:54:55.892Z,1.92
2023-05-19T10:57:28.158Z,1.70
2023-05-19T10:59:56.910Z,2.23
2023-05-19T11:02:41.199Z,2.70
2023-05-19T11:05:18.293Z,2.30
2023-05-19T11:07:57.366Z,1.75
2023-05-19T11:10:24.575Z,2.92
2023-05-19T11:12:52.505Z,2.13
2023-05-19T11:15:25.931Z,2.10
2023-05-19T11:17:53.601Z,2.15
2023-05-19T11:20:25.668Z,2.15
2023-05-19T11:23:07.545Z,1.85
2023-05-19T11:25:48.738Z,1.98
2023-05-19T11:28:19.444Z,1.83
2023-05-19T11:30:51.693Z,2.00
2023-05-19T11:33:20.444Z,2.20
2023-05-19T11:35:49.848Z,2.05
2023-05-19T11:38:21.798Z,2.35
2023-05-19T11:40:50.007Z,2.20
2023-05-19T11:43:16.912Z,1.90
2023-05-19T11:45:44.906Z,2.10
2023-05-19T11:48:12.786Z,2.20
2023-05-19T11:50:44.163Z,2.13
2023-05-19T11:53:15.073Z,2.38
2023-05-19T11:55:48.780Z,2.30
2023-05-19T11:58:16.745Z,2.45
2023-05-19T12:00:46.154Z,2.33
2023-05-19T12:03:13.507Z,2.88
2023-05-19T12:05:47.988Z,2.70
2023-05-19T12:08:18.541Z,2.00
2023-05-19T12:10:50.656Z,2.30
2023-05-19T12:13:17.594Z,2.42
2023-05-19T12:15:44.539Z,2.30
2023-05-19T12:18:11.671Z,2.33
2023-05-19T12:20:38.624Z,2.60
2023-05-19T12:23:05.835Z,2.25
2023-05-19T12:25:33.117Z,2.08
2023-05-19T12:28:03.682Z,1.95
2023-05-19T12:30:32.370Z,2.15
2023-05-19T12:32:59.979Z,2.30
2023-05-19T12:35:32.191Z,2.72
2023-05-19T12:38:08.987Z,2.05
2023-05-19T12:40:37.212Z,2.58
2023-05-19T12:43:05.747Z,2.40
2023-05-19T12:45:42.439Z,2.33
2023-05-19T12:48:12.867Z,2.42
2023-05-19T12:50:40.104Z,2.63
2023-05-19T12:53:12.483Z,2.60
2023-05-19T12:55:44.898Z,2.27
2023-05-19T12:58:12.410Z,2.10
2023-05-19T13:00:50.597Z,3.15
2023-05-19T13:03:21.983Z,2.00
2023-05-19T13:05:51.393Z,2.80
2023-05-19T13:08:21.411Z,2.78
2023-05-19T13:10:49.653Z,2.85
2023-05-19T13:13:16.924Z,2.30
2023-05-19T13:15:45.455Z,2.45
2023-05-19T13:18:13.836Z,2.67
2023-05-19T13:20:42.300Z,2.80
2023-05-19T13:23:13.015Z,2.65
2023-05-19T13:25:41.324Z,2.47
2023-05-19T13:28:08.965Z,3.05
2023-05-19T13:30:38.589Z,3.10
2023-05-19T13:33:06.057Z,3.28
2023-05-19T13:35:37.180Z,3.17
2023-05-19T13:38:12.042Z,2.78
2023-05-19T13:40:39.903Z,2.67
2023-05-19T13:43:07.857Z,2.78
2023-05-19T13:45:34.926Z,2.67
2023-05-19T13:48:02.047Z,2.30
2023-05-19T13:50:29.058Z,2.35
2023-05-19T13:52:56.331Z,2.58
2023-05-19T13:55:23.653Z,2.55
2023-05-19T13:57:50.923Z,2.95
2023-05-19T14:00:18.995Z,2.78
2023-05-19T14:02:46.291Z,2.33
2023-05-19T14:05:13.455Z,2.80
2023-05-19T14:07:40.537Z,2.70
2023-05-19T14:10:08.111Z,2.45
2023-05-19T14:12:49.559Z,2.72
2023-05-19T14:15:23.006Z,2.83
2023-05-19T14:17:50.123Z,2.75
2023-05-19T14:20:17.322Z,2.90
2023-05-19T14:22:44.214Z,2.38
2023-05-19T14:25:11.131Z,2.35
2023-05-19T14:27:39.942Z,2.47
2023-05-19T14:30:08.051Z,2.60
2023-05-19T14:32:35.189Z,2.95
2023-05-19T14:35:04.940Z,2.80
2023-05-19T14:37:32.294Z,3.25
2023-05-19T14:40:06.978Z,4.03
2023-05-19T14:42:34.033Z,3.90
2023-05-19T14:45:03.549Z,2.83
2023-05-19T14:47:30.706Z,2.35
2023-05-19T14:49:57.613Z,3.13
2023-05-19T14:52:26.250Z,2.40
2023-05-19T14:54:53.259Z,2.75
2023-05-19T14:57:20.190Z,2.55
2023-05-19T14:59:54.456Z,2.55
2023-05-19T15:02:21.434Z,2.63
2023-05-19T15:04:51.691Z,3.50
2023-05-19T15:07:18.890Z,2.70
2023-05-19T15:09:46.375Z,2.55
2023-05-19T15:12:15.567Z,2.60
2023-05-19T15:14:42.742Z,2.70
2023-05-19T15:17:17.228Z,2.38
2023-05-19T15:19:46.746Z,2.65
2023-05-19T15:22:15.050Z,3.10
2023-05-19T15:24:44.345Z,2.70
2023-05-19T15:27:11.338Z,3.13
2023-05-19T15:29:38.287Z,2.78
2023-05-19T15:32:05.488Z,2.92
2023-05-19T15:34:32.441Z,3.58
2023-05-19T15:36:59.344Z,3.30
2023-05-19T15:39:26.281Z,2.97
2023-05-19T15:41:53.214Z,2.42
2023-05-19T15:44:20.117Z,2.80
2023-05-19T15:46:47.065Z,2.85
2023-05-19T15:49:13.936Z,2.38
2023-05-19T15:51:41.719Z,2.85
2023-05-19T15:54:11.031Z,3.63
2023-05-19T15:56:37.969Z,2.90
2023-05-19T15:59:05.785Z,2.72
2023-05-19T16:01:32.725Z,2.50
2023-05-19T16:04:01.062Z,2.33
2023-05-19T16:06:28.233Z,2.33
2023-05-19T16:08:55.113Z,2.75
2023-05-19T16:11:23.601Z,2.88
2023-05-19T16:13:50.725Z,2.85
2023-05-19T16:16:22.142Z,2.80
2023-05-19T16:18:49.378Z,2.78
2023-05-19T16:21:16.376Z,2.33
2023-05-19T16:23:43.367Z,2.83
2023-05-19T16:26:10.524Z,2.20
2023-05-19T16:28:37.500Z,2.53
2023-05-19T16:31:04.560Z,2.65
2023-05-19T16:33:31.415Z,2.30
2023-05-19T16:35:59.914Z,2.80
2023-05-19T16:38:26.887Z,2.65
2023-05-19T16:40:53.742Z,2.40
2023-05-19T16:43:20.833Z,1.98
2023-05-19T16:45:49.736Z,2.72
2023-05-19T16:48:20.402Z,2.42
2023-05-19T16:50:49.698Z,2.45
2023-05-19T16:53:16.605Z,2.30
2023-05-19T16:55:44.801Z,2.58
2023-05-19T16:58:13.235Z,2.60
2023-05-19T17:00:40.386Z,2.95
2023-05-19T17:03:07.331Z,2.53
2023-05-19T17:05:35.599Z,2.30
2023-05-19T17:08:02.466Z,2.40
2023-05-19T17:10:29.523Z,2.15
2023-05-19T17:12:56.418Z,2.40
2023-05-19T17:15:23.358Z,2.20
2023-05-19T17:17:50.204Z,2.22
2023-05-19T17:20:17.100Z,2.58
2023-05-19T17:22:44.017Z,2.50
2023-05-19T17:25:10.909Z,2.45
2023-05-19T17:27:37.773Z,2.88
2023-05-19T17:30:05.024Z,2.30
2023-05-19T17:32:35.939Z,2.80
2023-05-19T17:35:06.710Z,2.63
2023-05-19T17:37:33.663Z,4.72
2023-05-19T17:40:00.987Z,2.30
2023-05-19T17:42:29.186Z,2.40
2023-05-19T17:44:56.011Z,2.35
2023-05-19T17:47:22.950Z,2.50
2023-05-19T17:49:52.922Z,2.33
2023-05-19T17:52:20.605Z,2.92
2023-05-19T17:54:47.882Z,2.20
2023-05-19T17:57:17.133Z,2.53
2023-05-19T17:59:44.597Z,3.10
2023-05-19T18:02:12.087Z,2.00
2023-05-19T18:04:39.302Z,2.22
2023-05-19T18:07:08.909Z,3.22
2023-05-19T18:09:38.464Z,3.15
2023-05-19T18:12:06.262Z,2.40
2023-05-19T18:14:33.152Z,2.85
2023-05-19T18:17:00.549Z,2.72
2023-05-19T18:19:27.431Z,3.75
2023-05-19T18:21:54.421Z,3.55
2023-05-19T18:24:21.557Z,4.13
2023-05-19T18:26:48.526Z,2.63
2023-05-19T18:29:15.390Z,3.30
2023-05-19T18:31:42.466Z,2.67
2023-05-19T18:34:09.586Z,3.35
2023-05-19T18:36:36.492Z,2.95
2023-05-19T18:39:04.616Z,3.40
2023-05-19T18:41:32.070Z,3.47
2023-05-19T18:43:58.992Z,4.50
2023-05-19T18:46:26.075Z,5.63
2023-05-19T18:48:53.097Z,4.50
2023-05-19T18:51:21.408Z,3.85
2023-05-19T18:53:49.402Z,3.25
2023-05-19T18:56:26.654Z,2.70
2023-05-19T18:58:54.705Z,3.30
2023-05-19T19:01:21.693Z,3.08
2023-05-19T19:03:49.362Z,2.40
2023-05-19T19:06:17.304Z,2.67
2023-05-19T19:08:44.758Z,2.63
2023-05-19T19:11:11.630Z,2.90
2023-05-19T19:13:39.487Z,3.50
2023-05-19T19:16:07.128Z,2.83
2023-05-19T19:18:36.333Z,4.05
2023-05-19T19:21:05.655Z,3.58
2023-05-19T19:23:33.198Z,3.15
2023-05-19T19:26:00.549Z,2.83
2023-05-19T19:28:27.671Z,3.20
2023-05-19T19:30:54.660Z,5.18
2023-05-19T19:33:21.631Z,4.50
2023-05-19T19:35:48.727Z,4.40
2023-05-19T19:38:15.697Z,4.13
2023-05-19T19:40:42.837Z,4.38
2023-05-19T19:43:09.948Z,3.45
2023-05-19T19:45:39.285Z,2.85
2023-05-19T19:48:09.844Z,2.80
2023-05-19T19:50:36.949Z,2.58
2023-05-19T19:53:04.404Z,3.70
2023-05-19T19:55:31.768Z,3.95
2023-05-19T19:57:58.859Z,3.95
2023-05-19T20:00:26.018Z,3.60
2023-05-19T20:03:03.514Z,3.42
2023-05-19T20:05:32.113Z,3.75
2023-05-19T20:07:59.356Z,3.78
2023-05-19T20:10:26.709Z,3.53
2023-05-19T20:12:53.962Z,3.47
2023-05-19T20:15:21.219Z,3.17
2023-05-19T20:17:48.451Z,3.45
2023-05-19T20:20:15.945Z,3.10
2023-05-19T20:22:45.888Z,3.90
2023-05-19T20:25:13.005Z,3.75
2023-05-19T20:27:40.228Z,3.78
2023-05-19T20:30:08.905Z,3.97
2023-05-19T20:32:36.248Z,4.40
2023-05-19T20:35:03.239Z,3.40
2023-05-19T20:37:30.275Z,4.10
2023-05-19T20:39:57.267Z,3.72
2023-05-19T20:42:24.178Z,4.80
2023-05-19T20:44:51.382Z,3.85
2023-05-19T20:47:21.272Z,3.95
2023-05-19T20:49:48.386Z,3.50
2023-05-19T20:52:18.803Z,3.67
2023-05-19T20:54:46.480Z,4.10
2023-05-19T20:57:13.683Z,3.88
2023-05-19T20:59:40.707Z,3.78
2023-05-19T21:02:07.775Z,3.80
2023-05-19T21:04:34.907Z,3.72
2023-05-19T21:07:01.848Z,3.97
2023-05-19T21:09:28.869Z,3.60
2023-05-19T21:11:55.924Z,4.30
2023-05-19T21:14:23.413Z,4.32
2023-05-19T21:16:51.334Z,4.03
2023-05-19T21:19:20.633Z,3.97
2023-05-19T21:21:47.834Z,3.80
2023-05-19T21:24:15.538Z,3.90
2023-05-19T21:26:43.389Z,3.50
2023-05-19T21:29:10.696Z,3.70
2023-05-19T21:31:37.790Z,4.20
2023-05-19T21:34:07.214Z,3.90
2023-05-19T21:36:35.243Z,3.95
2023-05-19T21:39:02.312Z,3.42
2023-05-19T21:41:31.100Z,3.70
2023-05-19T21:43:57.982Z,3.65
2023-05-19T21:46:24.968Z,4.22
2023-05-19T21:48:51.828Z,4.35
2023-05-19T21:51:18.701Z,3.80
2023-05-19T21:53:45.594Z,3.95
2023-05-19T21:56:12.547Z,4.43
2023-05-19T21:58:39.481Z,3.92
2023-05-19T22:01:06.336Z,3.80
2023-05-19T22:03:33.354Z,3.80
2023-05-19T22:06:00.392Z,3.63
2023-05-19T22:08:27.315Z,3.95
2023-05-19T22:10:54.635Z,3.78
2023-05-19T22:13:21.799Z,4.88
2023-05-19T22:15:48.823Z,4.05
2023-05-19T22:18:15.794Z,4.43
2023-05-19T22:20:43.147Z,4.32
2023-05-19T22:23:10.677Z,3.90
2023-05-19T22:25:37.556Z,4.13
2023-05-19T22:28:07.401Z,4.07
2023-05-19T22:30:41.126Z,3.80
2023-05-19T22:33:11.748Z,5.10
2023-05-19T22:35:38.931Z,4.88
2023-05-19T22:38:07.447Z,4.53
2023-05-19T22:40:36.688Z,4.25
2023-05-19T22:43:03.639Z,4.93
2023-05-19T22:45:30.988Z,4.53
2023-05-19T22:47:57.850Z,4.28
2023-05-19T22:50:24.773Z,4.13
2023-05-19T22:52:52.018Z,3.83
2023-05-19T22:55:19.058Z,4.18
2023-05-19T22:57:45.919Z,4.60
2023-05-19T23:00:18.585Z,4.00
2023-05-19T23:02:45.545Z,3.83
2023-05-19T23:05:12.446Z,3.67
2023-05-19T23:07:39.394Z,3.88
2023-05-19T23:10:07.518Z,4.20
2023-05-19T23:12:34.869Z,3.80
2023-05-19T23:15:02.230Z,3.92
2023-05-19T23:17:29.225Z,3.72
2023-05-19T23:19:56.174Z,3.97
2023-05-19T23:22:23.055Z,3.90
2023-05-19T23:24:49.933Z,4.30
2023-05-19T23:27:16.827Z,4.65
2023-05-19T23:29:48.347Z,4.13
2023-05-19T23:32:15.398Z,4.55
2023-05-19T23:34:42.300Z,4.40
2023-05-19T23:37:09.260Z,4.00
2023-05-19T23:39:38.216Z,3.92
2023-05-19T23:42:05.774Z,3.65
2023-05-19T23:44:32.825Z,4.25
2023-05-19T23:46:59.801Z,4.43
2023-05-19T23:49:26.931Z,4.75
2023-05-19T23:51:53.823Z,4.30
2023-05-19T23:54:20.895Z,4.78
2023-05-19T23:56:47.752Z,4.90
2023-05-19T23:59:14.606Z,4.43
